createdAt,value
2023-12-12T00:00:04.349Z,19.50
2023-12-12T00:02:37.867Z,19.60
2023-12-12T00:05:11.171Z,19.60
2023-12-12T00:07:44.861Z,19.60
2023-12-12T00:10:17.818Z,19.50
2023-12-12T00:12:51.563Z,19.50
2023-12-12T00:15:24.670Z,19.40
2023-12-12T00:17:57.780Z,19.40
2023-12-12T00:20:30.850Z,19.40
2023-12-12T00:23:03.921Z,19.40
2023-12-12T00:25:36.996Z,19.50
2023-12-12T00:28:14.226Z,19.60
2023-12-12T00:30:47.281Z,19.70
2023-12-12T00:33:20.314Z,19.70
2023-12-12T00:35:53.383Z,19.80
2023-12-12T00:38:27.748Z,19.80
2023-12-12T00:41:01.416Z,19.90
2023-12-12T00:43:34.472Z,19.90
2023-12-12T00:46:08.791Z,20.00
2023-12-12T00:48:42.054Z,20.10
2023-12-12T00:51:15.527Z,20.10
2023-12-12T00:53:48.548Z,20.20
2023-12-12T00:56:21.536Z,20.30
2023-12-12T00:58:54.508Z,20.40
2023-12-12T01:01:27.602Z,20.40
2023-12-12T01:04:00.808Z,20.50
2023-12-12T01:06:34.342Z,20.60
2023-12-12T01:09:07.381Z,20.60
2023-12-12T01:11:40.640Z,20.50
2023-12-12T01:14:13.651Z,20.60
2023-12-12T01:16:46.780Z,20.60
2023-12-12T01:19:35.176Z,20.60
2023-12-12T01:22:08.505Z,20.70
2023-12-12T01:24:41.689Z,20.70
2023-12-12T01:27:14.616Z,20.70
2023-12-12T01:29:47.820Z,20.80
2023-12-12T01:32:21.010Z,20.80
2023-12-12T01:34:54.420Z,20.70
2023-12-12T01:37:27.447Z,20.70
2023-12-12T01:40:00.881Z,20.60
2023-12-12T01:42:37.163Z,20.70
2023-12-12T01:45:11.515Z,20.70
2023-12-12T01:47:45.056Z,20.70
2023-12-12T01:50:22.957Z,20.70
2023-12-12T01:52:56.415Z,20.70
2023-12-12T01:55:29.610Z,20.70
2023-12-12T01:58:02.569Z,20.70
2023-12-12T02:00:36.372Z,20.60
2023-12-12T02:03:09.783Z,20.60
2023-12-12T02:05:44.693Z,20.60
2023-12-12T02:08:18.453Z,20.60
2023-12-12T02:10:51.952Z,20.60
2023-12-12T02:13:25.256Z,20.60
2023-12-12T02:15:58.798Z,20.60
2023-12-12T02:18:31.938Z,20.60
2023-12-12T02:21:05.188Z,20.60
2023-12-12T02:23:38.251Z,20.60
2023-12-12T02:26:11.228Z,20.60
2023-12-12T02:28:44.863Z,20.60
2023-12-12T02:31:19.371Z,20.70
2023-12-12T02:33:52.558Z,20.70
2023-12-12T02:36:25.918Z,20.70
2023-12-12T02:38:59.082Z,20.70
2023-12-12T02:41:34.904Z,20.70
2023-12-12T02:44:08.220Z,20.70
2023-12-12T02:46:42.593Z,20.60
2023-12-12T02:49:15.541Z,20.60
2023-12-12T02:51:48.824Z,20.60
2023-12-12T02:54:22.104Z,20.50
2023-12-12T02:56:54.966Z,20.50
2023-12-12T02:59:28.030Z,20.40
2023-12-12T03:02:01.231Z,20.40
2023-12-12T03:04:34.823Z,20.30
2023-12-12T03:07:07.914Z,20.30
2023-12-12T03:09:40.840Z,20.30
2023-12-12T03:12:13.941Z,20.30
2023-12-12T03:14:50.873Z,20.30
2023-12-12T03:17:23.833Z,20.40
2023-12-12T03:19:56.966Z,20.40
2023-12-12T03:22:29.843Z,20.40
2023-12-12T03:25:04.289Z,20.30
2023-12-12T03:27:37.313Z,20.30
2023-12-12T03:30:11.219Z,20.30
2023-12-12T03:32:45.312Z,20.20
2023-12-12T03:35:18.381Z,20.20
2023-12-12T03:37:51.309Z,20.10
2023-12-12T03:40:47.899Z,20.00
2023-12-12T03:43:04.233Z,20.00
2023-12-12T03:45:37.153Z,19.90
2023-12-12T03:48:10.617Z,19.90
2023-12-12T03:50:43.805Z,19.90
2023-12-12T03:53:18.924Z,19.90
2023-12-12T03:55:51.983Z,19.80
2023-12-12T03:58:24.842Z,19.80
2023-12-12T04:00:57.825Z,19.80
2023-12-12T04:03:30.819Z,19.80
2023-12-12T04:06:04.837Z,19.80
2023-12-12T04:08:38.056Z,19.70
2023-12-12T04:11:11.353Z,19.80
2023-12-12T04:13:44.398Z,19.70
2023-12-12T04:16:17.333Z,19.70
2023-12-12T04:18:50.498Z,19.70
2023-12-12T04:21:27.590Z,19.70
2023-12-12T04:24:00.538Z,19.70
2023-12-12T04:26:36.537Z,19.70
2023-12-12T04:29:09.246Z,19.70
2023-12-12T04:31:42.375Z,19.70
2023-12-12T04:34:15.475Z,19.70
2023-12-12T04:36:48.603Z,19.70
2023-12-12T04:39:21.624Z,19.70
2023-12-12T04:41:54.470Z,19.60
2023-12-12T04:44:27.472Z,19.60
2023-12-12T04:47:00.641Z,19.60
2023-12-12T04:49:34.093Z,19.60
2023-12-12T04:52:07.260Z,19.50
2023-12-12T04:54:40.249Z,19.50
2023-12-12T04:57:13.284Z,19.50
2023-12-12T04:59:46.304Z,19.40
2023-12-12T05:02:19.363Z,19.40
2023-12-12T05:04:52.310Z,19.40
2023-12-12T05:07:25.215Z,19.40
2023-12-12T05:10:02.557Z,19.40
2023-12-12T05:12:36.047Z,19.40
2023-12-12T05:15:10.277Z,19.40
2023-12-12T05:17:47.749Z,19.40
2023-12-12T05:20:21.497Z,19.40
2023-12-12T05:22:54.586Z,19.30
2023-12-12T05:25:27.669Z,19.30
2023-12-12T05:28:00.652Z,19.30
2023-12-12T05:30:34.461Z,19.30
2023-12-12T05:33:07.773Z,19.30
2023-12-12T05:35:45.196Z,19.20
2023-12-12T05:38:18.559Z,19.20
2023-12-12T05:40:51.668Z,19.10
2023-12-12T05:43:24.653Z,19.10
2023-12-12T05:45:57.846Z,19.00
2023-12-12T05:48:31.922Z,19.00
2023-12-12T05:51:05.731Z,18.90
2023-12-12T05:53:38.876Z,18.90
2023-12-12T05:56:12.221Z,18.80
2023-12-12T05:58:45.113Z,18.80
2023-12-12T06:01:19.564Z,18.80
2023-12-12T06:03:55.432Z,18.80
2023-12-12T06:06:28.544Z,18.70
2023-12-12T06:09:01.675Z,18.70
2023-12-12T06:11:34.736Z,18.60
2023-12-12T06:14:08.369Z,18.60
2023-12-12T06:16:41.633Z,18.60
2023-12-12T06:19:15.010Z,18.60
2023-12-12T06:21:49.325Z,18.50
2023-12-12T06:24:24.856Z,18.50
2023-12-12T06:26:58.185Z,18.50
2023-12-12T06:29:31.177Z,18.40
2023-12-12T06:32:04.562Z,18.40
2023-12-12T06:34:37.592Z,18.30
2023-12-12T06:37:10.751Z,18.20
2023-12-12T06:39:43.744Z,18.20
2023-12-12T06:42:16.723Z,18.20
2023-12-12T06:44:49.915Z,18.10
2023-12-12T06:47:23.640Z,18.10
2023-12-12T06:49:56.639Z,18.10
2023-12-12T06:52:31.168Z,18.00
2023-12-12T06:55:04.629Z,18.00
2023-12-12T06:57:37.434Z,18.00
2023-12-12T07:00:12.191Z,17.90
2023-12-12T07:02:45.522Z,17.90
2023-12-12T07:05:18.530Z,17.80
2023-12-12T07:07:52.195Z,17.80
2023-12-12T07:10:25.360Z,17.70
2023-12-12T07:12:58.800Z,17.70
2023-12-12T07:15:32.734Z,17.60
2023-12-12T07:18:06.018Z,17.60
2023-12-12T07:20:39.028Z,17.60
2023-12-12T07:23:13.486Z,17.50
2023-12-12T07:25:45.823Z,17.50
2023-12-12T07:28:19.095Z,17.50
2023-12-12T07:30:52.176Z,17.50
2023-12-12T07:33:25.311Z,17.40
2023-12-12T07:35:58.578Z,17.40
2023-12-12T07:38:31.842Z,17.40
2023-12-12T07:41:04.982Z,17.40
2023-12-12T07:43:37.781Z,17.30
2023-12-12T07:46:11.211Z,17.30
2023-12-12T07:48:44.484Z,17.30
2023-12-12T07:51:18.366Z,17.30
2023-12-12T07:53:51.419Z,17.20
2023-12-12T07:56:24.491Z,17.20
2023-12-12T07:58:57.535Z,17.10
2023-12-12T08:01:31.267Z,17.10
2023-12-12T08:04:04.560Z,17.10
2023-12-12T08:06:38.429Z,17.10
2023-12-12T08:09:11.509Z,17.00
2023-12-12T08:11:48.486Z,17.00
2023-12-12T08:14:21.613Z,17.00
2023-12-12T08:16:54.612Z,17.00
2023-12-12T08:19:27.739Z,17.00
2023-12-12T08:22:02.217Z,17.00
2023-12-12T08:24:35.234Z,17.00
2023-12-12T08:27:09.133Z,17.00
2023-12-12T08:29:42.131Z,16.90
2023-12-12T08:32:19.786Z,16.90
2023-12-12T08:34:52.833Z,16.90
2023-12-12T08:37:25.956Z,16.90
2023-12-12T08:39:59.163Z,16.90
2023-12-12T08:42:32.107Z,16.80
2023-12-12T08:45:05.147Z,16.80
2023-12-12T08:47:43.369Z,16.80
2023-12-12T08:50:16.591Z,16.80
2023-12-12T08:52:53.741Z,16.80
2023-12-12T08:55:26.775Z,16.70
2023-12-12T08:57:59.731Z,16.70
2023-12-12T09:00:32.727Z,16.70
2023-12-12T09:03:05.786Z,16.70
2023-12-12T09:05:40.063Z,16.80
2023-12-12T09:08:13.163Z,16.70
2023-12-12T09:10:46.913Z,16.70
2023-12-12T09:13:20.053Z,16.70
2023-12-12T09:15:52.906Z,16.70
2023-12-12T09:18:26.134Z,16.70
2023-12-12T09:21:00.233Z,16.70
2023-12-12T09:23:33.989Z,16.70
2023-12-12T09:26:07.362Z,16.70
2023-12-12T09:28:40.286Z,16.70
2023-12-12T09:31:13.231Z,16.70
2023-12-12T09:33:46.299Z,16.70
2023-12-12T09:36:19.138Z,16.70
2023-12-12T09:38:52.299Z,16.60
2023-12-12T09:41:28.999Z,16.60
2023-12-12T09:44:02.234Z,16.60
2023-12-12T09:46:36.296Z,16.60
2023-12-12T09:49:11.010Z,16.60
2023-12-12T09:51:46.139Z,16.60
2023-12-12T09:54:20.521Z,16.60
2023-12-12T09:56:54.387Z,16.60
2023-12-12T09:59:27.444Z,16.50
2023-12-12T10:02:06.701Z,16.50
2023-12-12T10:04:35.141Z,16.50
2023-12-12T10:07:11.171Z,16.50
2023-12-12T10:09:44.236Z,16.50
2023-12-12T10:12:17.327Z,16.60
2023-12-12T10:14:51.402Z,16.60
2023-12-12T10:17:25.622Z,16.60
2023-12-12T10:20:01.067Z,16.50
2023-12-12T10:22:38.627Z,16.60
2023-12-12T10:25:17.221Z,16.60
2023-12-12T10:27:51.823Z,16.60
2023-12-12T10:30:26.609Z,16.60
2023-12-12T10:32:59.843Z,16.50
2023-12-12T10:35:34.165Z,16.50
2023-12-12T10:38:09.774Z,16.50
2023-12-12T10:40:42.806Z,16.50
2023-12-12T10:43:16.916Z,16.50
2023-12-12T10:45:51.135Z,16.40
2023-12-12T10:48:25.885Z,16.40
2023-12-12T10:51:01.235Z,16.40
2023-12-12T10:53:35.625Z,16.40
2023-12-12T10:56:13.499Z,16.30
2023-12-12T10:58:47.663Z,16.30
2023-12-12T11:01:20.781Z,16.30
2023-12-12T11:03:55.211Z,16.30
2023-12-12T11:06:28.419Z,16.20
2023-12-12T11:09:01.624Z,16.20
2023-12-12T11:11:39.240Z,16.20
2023-12-12T11:14:13.496Z,16.20
2023-12-12T11:16:48.849Z,16.20
2023-12-12T11:19:22.695Z,16.20
2023-12-12T11:21:56.181Z,16.20
2023-12-12T11:24:31.226Z,16.20
2023-12-12T11:27:04.694Z,16.20
2023-12-12T11:29:38.112Z,16.20
2023-12-12T11:32:11.258Z,16.20
2023-12-12T11:34:52.002Z,16.20
2023-12-12T11:37:30.544Z,16.20
2023-12-12T11:40:04.189Z,16.20
2023-12-12T11:42:37.185Z,16.20
2023-12-12T11:45:13.706Z,16.10
2023-12-12T11:47:47.338Z,16.10
2023-12-12T11:50:22.580Z,16.20
2023-12-12T11:52:55.650Z,16.20
2023-12-12T11:55:31.372Z,16.20
2023-12-12T11:58:17.983Z,16.20
2023-12-12T12:00:51.006Z,16.20
2023-12-12T12:03:26.058Z,16.20
2023-12-12T12:05:59.075Z,16.20
2023-12-12T12:08:32.302Z,16.20
2023-12-12T12:11:05.629Z,16.30
2023-12-12T12:13:45.287Z,16.30
2023-12-12T12:16:18.526Z,16.30
2023-12-12T12:18:51.578Z,16.30
2023-12-12T12:21:26.034Z,16.30
2023-12-12T12:23:59.530Z,16.30
2023-12-12T12:26:33.310Z,16.30
2023-12-12T12:29:08.115Z,16.30
2023-12-12T12:31:43.450Z,16.30
2023-12-12T12:34:28.915Z,16.30
2023-12-12T12:37:02.482Z,16.30
2023-12-12T12:39:36.453Z,16.30
2023-12-12T12:42:09.670Z,16.20
2023-12-12T12:44:42.807Z,16.20
2023-12-12T12:47:15.926Z,16.20
2023-12-12T12:49:49.019Z,16.20
2023-12-12T12:52:22.176Z,16.10
2023-12-12T12:54:55.254Z,16.10
2023-12-12T12:57:28.775Z,16.10
2023-12-12T13:00:01.630Z,16.10
2023-12-12T13:02:34.872Z,16.10
2023-12-12T13:05:08.293Z,16.10
2023-12-12T13:07:41.392Z,16.10
2023-12-12T13:10:16.097Z,16.10
2023-12-12T13:12:49.411Z,16.10
2023-12-12T13:15:22.478Z,16.10
2023-12-12T13:17:55.604Z,16.10
2023-12-12T13:20:31.648Z,16.10
2023-12-12T13:23:04.828Z,16.10
2023-12-12T13:25:42.467Z,16.10
2023-12-12T13:28:18.542Z,16.10
2023-12-12T13:30:51.374Z,16.10
2023-12-12T13:33:24.419Z,16.10
2023-12-12T13:35:57.572Z,16.10
2023-12-12T13:38:30.317Z,16.10
2023-12-12T13:41:03.374Z,16.10
2023-12-12T13:43:36.623Z,16.10
2023-12-12T13:46:10.264Z,16.10
2023-12-12T13:48:43.373Z,16.10
2023-12-12T13:51:19.870Z,16.10
2023-12-12T13:53:52.317Z,16.20
2023-12-12T13:56:25.295Z,16.20
2023-12-12T13:59:04.078Z,16.20
2023-12-12T14:01:32.589Z,16.20
2023-12-12T14:04:05.776Z,16.20
2023-12-12T14:06:38.715Z,16.20
2023-12-12T14:09:17.105Z,16.20
2023-12-12T14:11:51.238Z,16.20
2023-12-12T14:14:24.658Z,16.20
2023-12-12T14:16:57.934Z,16.20
2023-12-12T14:19:30.904Z,16.20
2023-12-12T14:22:03.942Z,16.20
2023-12-12T14:24:37.415Z,16.20
2023-12-12T14:27:10.645Z,16.20
2023-12-12T14:29:43.736Z,16.20
2023-12-12T14:32:16.610Z,16.10
2023-12-12T14:34:49.570Z,16.10
2023-12-12T14:37:22.895Z,16.10
2023-12-12T14:39:56.209Z,16.20
2023-12-12T14:42:29.378Z,16.20
2023-12-12T14:45:02.627Z,16.10
2023-12-12T14:47:35.784Z,16.10
2023-12-12T14:50:09.946Z,16.10
2023-12-12T14:52:43.026Z,16.10
2023-12-12T14:55:16.355Z,16.10
2023-12-12T14:57:49.656Z,16.10
2023-12-12T15:00:27.213Z,16.10
2023-12-12T15:02:59.110Z,16.10
2023-12-12T15:05:32.079Z,16.10
2023-12-12T15:08:05.323Z,16.10
2023-12-12T15:10:38.265Z,16.10
2023-12-12T15:13:11.502Z,16.10
2023-12-12T15:15:44.552Z,16.10
2023-12-12T15:18:17.776Z,16.10
2023-12-12T15:20:50.797Z,16.10
2023-12-12T15:23:23.899Z,16.00
2023-12-12T15:25:56.746Z,16.00
2023-12-12T15:28:30.148Z,16.00
2023-12-12T15:31:03.245Z,16.00
2023-12-12T15:33:37.200Z,16.00
2023-12-12T15:36:12.398Z,16.00
2023-12-12T15:38:45.530Z,16.00
2023-12-12T15:41:19.530Z,16.00
2023-12-12T15:43:52.565Z,16.00
2023-12-12T15:46:25.787Z,15.90
2023-12-12T15:48:58.904Z,16.00
2023-12-12T15:51:33.192Z,16.00
2023-12-12T15:54:06.365Z,16.00
2023-12-12T15:56:42.766Z,16.00
2023-12-12T15:59:16.500Z,16.00
2023-12-12T16:01:49.640Z,16.00
2023-12-12T16:04:22.849Z,16.00
2023-12-12T16:06:56.395Z,16.00
2023-12-12T16:09:29.702Z,16.00
2023-12-12T16:12:03.188Z,16.00
2023-12-12T16:14:36.426Z,16.00
2023-12-12T16:17:09.893Z,16.00
2023-12-12T16:19:42.886Z,16.00
2023-12-12T16:22:16.500Z,16.10
2023-12-12T16:24:51.087Z,16.10
2023-12-12T16:27:25.288Z,16.00
2023-12-12T16:29:58.376Z,16.10
2023-12-12T16:32:32.388Z,16.10
2023-12-12T16:35:05.617Z,16.10
2023-12-12T16:37:40.224Z,16.10
2023-12-12T16:40:14.835Z,16.10
2023-12-12T16:42:48.596Z,16.10
2023-12-12T16:45:22.720Z,16.20
2023-12-12T16:47:56.202Z,16.20
2023-12-12T16:50:29.232Z,16.20
2023-12-12T16:53:02.786Z,16.20
2023-12-12T16:55:36.688Z,16.20
2023-12-12T16:58:10.573Z,16.20
2023-12-12T17:00:48.747Z,16.20
2023-12-12T17:03:22.293Z,16.20
2023-12-12T17:05:55.433Z,16.20
2023-12-12T17:08:28.458Z,16.20
2023-12-12T17:11:01.633Z,16.20
2023-12-12T17:13:34.655Z,16.20
2023-12-12T17:16:08.072Z,16.20
2023-12-12T17:18:41.249Z,16.20
2023-12-12T17:21:14.210Z,16.20
2023-12-12T17:23:49.015Z,16.20
2023-12-12T17:26:21.135Z,16.20
2023-12-12T17:28:54.115Z,16.20
2023-12-12T17:31:27.294Z,16.20
2023-12-12T17:34:00.364Z,16.20
2023-12-12T17:36:33.548Z,16.20
2023-12-12T17:39:09.162Z,16.30
2023-12-12T17:41:42.063Z,16.30
2023-12-12T17:44:15.237Z,16.30
2023-12-12T17:46:49.465Z,16.30
2023-12-12T17:49:24.029Z,16.30
2023-12-12T17:51:57.160Z,16.40
2023-12-12T17:54:30.228Z,16.40
2023-12-12T17:57:03.382Z,16.40
2023-12-12T17:59:36.338Z,16.40
2023-12-12T18:02:10.102Z,16.40
2023-12-12T18:04:43.053Z,16.50
2023-12-12T18:07:16.287Z,16.50
2023-12-12T18:09:49.224Z,16.50
2023-12-12T18:12:22.112Z,16.50
2023-12-12T18:14:55.138Z,16.50
2023-12-12T18:17:27.934Z,16.50
2023-12-12T18:20:00.967Z,16.50
2023-12-12T18:22:33.975Z,16.60
2023-12-12T18:25:07.052Z,16.60
2023-12-12T18:27:40.466Z,16.60
2023-12-12T18:30:15.633Z,16.60
2023-12-12T18:32:49.129Z,16.60
2023-12-12T18:35:22.293Z,16.60
2023-12-12T18:37:55.297Z,16.60
2023-12-12T18:40:28.431Z,16.60
2023-12-12T18:43:01.487Z,16.60
2023-12-12T18:45:34.508Z,16.60
2023-12-12T18:48:07.807Z,16.60
2023-12-12T18:50:42.247Z,16.60
2023-12-12T18:53:16.446Z,16.60
2023-12-12T18:55:49.677Z,16.60
2023-12-12T18:58:22.854Z,16.60
2023-12-12T19:00:56.060Z,16.70
2023-12-12T19:03:29.156Z,16.70
2023-12-12T19:06:02.266Z,16.80
2023-12-12T19:08:35.399Z,16.80
2023-12-12T19:11:08.452Z,16.90
2023-12-12T19:13:41.623Z,17.00
2023-12-12T19:16:15.779Z,17.00
2023-12-12T19:18:49.078Z,17.10
2023-12-12T19:21:22.177Z,17.20
2023-12-12T19:23:55.268Z,17.20
2023-12-12T19:26:28.241Z,17.30
2023-12-12T19:29:01.206Z,17.30
2023-12-12T19:31:34.400Z,17.40
2023-12-12T19:34:07.840Z,17.40
2023-12-12T19:36:46.073Z,17.40
2023-12-12T19:39:19.523Z,17.40
2023-12-12T19:41:52.588Z,17.30
2023-12-12T19:44:25.647Z,17.40
2023-12-12T19:46:58.873Z,17.40
2023-12-12T19:49:36.952Z,17.30
2023-12-12T19:52:10.262Z,17.30
2023-12-12T19:54:43.218Z,17.30
2023-12-12T19:57:17.353Z,17.30
2023-12-12T19:59:53.634Z,17.30
2023-12-12T20:02:27.474Z,17.30
2023-12-12T20:05:00.712Z,17.30
2023-12-12T20:07:34.322Z,17.30
2023-12-12T20:10:08.441Z,17.30
2023-12-12T20:12:42.735Z,17.20
2023-12-12T20:15:17.522Z,17.20
2023-12-12T20:17:51.141Z,17.20
2023-12-12T20:20:24.456Z,17.20
2023-12-12T20:22:57.370Z,17.30
2023-12-12T20:25:30.576Z,17.30
2023-12-12T20:28:05.167Z,17.30
2023-12-12T20:30:39.370Z,17.30
2023-12-12T20:33:12.422Z,17.30
2023-12-12T20:35:45.516Z,17.30
2023-12-12T20:38:18.287Z,17.40
2023-12-12T20:40:51.535Z,17.50
2023-12-12T20:43:25.517Z,17.60
2023-12-12T20:45:59.262Z,17.60
2023-12-12T20:48:32.392Z,17.70
2023-12-12T20:51:05.462Z,17.80
2023-12-12T20:53:38.503Z,17.90
2023-12-12T20:56:12.488Z,18.00
2023-12-12T20:58:45.843Z,18.00
2023-12-12T21:01:18.849Z,18.10
2023-12-12T21:03:53.196Z,18.20
2023-12-12T21:06:26.223Z,18.20
2023-12-12T21:08:59.276Z,18.20
2023-12-12T21:11:32.286Z,18.20
2023-12-12T21:14:05.550Z,18.10
2023-12-12T21:16:38.667Z,18.10
2023-12-12T21:19:13.057Z,18.00
2023-12-12T21:21:49.111Z,18.00
2023-12-12T21:24:24.050Z,18.10
2023-12-12T21:26:56.657Z,18.10
2023-12-12T21:29:29.789Z,18.10
2023-12-12T21:32:03.078Z,18.20
2023-12-12T21:34:36.044Z,18.20
2023-12-12T21:37:09.768Z,18.20
2023-12-12T21:39:42.740Z,18.20
2023-12-12T21:42:15.675Z,18.20
2023-12-12T21:44:48.664Z,18.30
2023-12-12T21:47:21.629Z,18.30
2023-12-12T21:49:58.428Z,18.40
2023-12-12T21:52:32.711Z,18.40
2023-12-12T21:55:05.699Z,18.40
2023-12-12T21:57:38.820Z,18.40
2023-12-12T22:00:12.502Z,18.40
2023-12-12T22:02:45.381Z,18.40
2023-12-12T22:05:18.440Z,18.50
2023-12-12T22:07:51.660Z,18.60
2023-12-12T22:10:24.919Z,18.70
2023-12-12T22:12:57.919Z,18.80
2023-12-12T22:15:30.837Z,18.90
2023-12-12T22:18:03.960Z,19.00
2023-12-12T22:20:42.120Z,19.00
2023-12-12T22:23:15.257Z,19.10
2023-12-12T22:25:48.416Z,19.10
2023-12-12T22:28:21.532Z,19.20
2023-12-12T22:30:54.425Z,19.20
2023-12-12T22:33:27.705Z,19.20
2023-12-12T22:36:00.665Z,19.10
2023-12-12T22:38:34.293Z,19.10
2023-12-12T22:41:07.379Z,19.00
2023-12-12T22:43:41.753Z,18.90
2023-12-12T22:46:15.143Z,18.90
2023-12-12T22:48:48.510Z,18.90
2023-12-12T22:51:25.897Z,18.80
2023-12-12T22:53:58.982Z,18.90
2023-12-12T22:56:32.444Z,19.00
2023-12-12T22:59:05.493Z,19.00
2023-12-12T23:01:38.927Z,19.10
2023-12-12T23:04:12.265Z,19.20
2023-12-12T23:06:45.478Z,19.20
2023-12-12T23:09:18.697Z,19.30
2023-12-12T23:11:51.740Z,19.50
2023-12-12T23:14:27.160Z,19.60
2023-12-12T23:17:00.182Z,19.70
2023-12-12T23:19:33.151Z,19.70
2023-12-12T23:22:06.501Z,19.70
2023-12-12T23:24:42.097Z,19.70
2023-12-12T23:27:15.191Z,19.80
2023-12-12T23:29:47.933Z,19.80
2023-12-12T23:32:20.983Z,19.80
2023-12-12T23:34:54.772Z,19.70
2023-12-12T23:37:27.863Z,19.70
2023-12-12T23:40:01.271Z,19.70
2023-12-12T23:42:35.026Z,19.60
2023-12-12T23:45:08.544Z,19.50
2023-12-12T23:47:41.677Z,19.50
2023-12-12T23:50:16.003Z,19.50
2023-12-12T23:52:49.313Z,19.50
2023-12-12T23:55:22.887Z,19.50
2023-12-12T23:57:56.490Z,19.60
